sensor_id;sensor_type;location;lat;lon;timestamp;P1;durP1;ratioP1;P2;durP2;ratioP2
21438;SDS011;10880;50.302;18.736;2023-04-06T00:00:05;29.50;;;10.97;;
21438;SDS011;10880;50.302;18.736;2023-04-06T00:02:41;26.17;;;10.57;;
21438;SDS011;10880;50.302;18.736;2023-04-06T00:05:34;23.87;;;9.47;;
21438;SDS011;10880;50.302;18.736;2023-04-06T00:08:07;27.47;;;9.93;;
21438;SDS011;10880;50.302;18.736;2023-04-06T00:11:05;25.33;;;9.30;;
21438;SDS011;10880;50.302;18.736;2023-04-06T00:13:38;20.73;;;8.80;;
21438;SDS011;10880;50.302;18.736;2023-04-06T00:16:31;23.90;;;9.17;;
21438;SDS011;10880;50.302;18.736;2023-04-06T00:19:06;23.20;;;9.20;;
21438;SDS011;10880;50.302;18.736;2023-04-06T00:21:59;28.60;;;10.90;;
21438;SDS011;10880;50.302;18.736;2023-04-06T00:24:34;26.40;;;9.83;;
21438;SDS011;10880;50.302;18.736;2023-04-06T00:27:29;23.10;;;9.00;;
21438;SDS011;10880;50.302;18.736;2023-04-06T00:30:07;24.83;;;9.63;;
21438;SDS011;10880;50.302;18.736;2023-04-06T00:33:04;19.27;;;8.27;;
21438;SDS011;10880;50.302;18.736;2023-04-06T00:35:38;38.97;;;12.80;;
21438;SDS011;10880;50.302;18.736;2023-04-06T00:38:31;29.73;;;11.70;;
21438;SDS011;10880;50.302;18.736;2023-04-06T00:41:04;29.60;;;11.17;;
21438;SDS011;10880;50.302;18.736;2023-04-06T00:43:58;34.67;;;13.43;;
21438;SDS011;10880;50.302;18.736;2023-04-06T00:46:31;38.43;;;14.00;;
21438;SDS011;10880;50.302;18.736;2023-04-06T00:49:25;34.43;;;12.53;;
21438;SDS011;10880;50.302;18.736;2023-04-06T00:51:59;30.77;;;12.73;;
21438;SDS011;10880;50.302;18.736;2023-04-06T00:54:55;41.00;;;16.07;;
21438;SDS011;10880;50.302;18.736;2023-04-06T00:57:28;41.30;;;15.90;;
21438;SDS011;10880;50.302;18.736;2023-04-06T01:00:29;42.83;;;15.90;;
21438;SDS011;10880;50.302;18.736;2023-04-06T01:03:03;41.57;;;15.90;;
21438;SDS011;10880;50.302;18.736;2023-04-06T01:05:57;27.80;;;11.83;;
21438;SDS011;10880;50.302;18.736;2023-04-06T01:08:36;31.37;;;11.97;;
21438;SDS011;10880;50.302;18.736;2023-04-06T01:11:35;43.30;;;16.63;;
21438;SDS011;10880;50.302;18.736;2023-04-06T01:14:11;47.03;;;17.57;;
21438;SDS011;10880;50.302;18.736;2023-04-06T01:17:10;33.97;;;13.33;;
21438;SDS011;10880;50.302;18.736;2023-04-06T01:19:44;34.07;;;12.77;;
21438;SDS011;10880;50.302;18.736;2023-04-06T01:22:44;25.20;;;10.93;;
21438;SDS011;10880;50.302;18.736;2023-04-06T01:25:18;21.73;;;9.60;;
21438;SDS011;10880;50.302;18.736;2023-04-06T01:28:18;26.77;;;11.37;;
21438;SDS011;10880;50.302;18.736;2023-04-06T01:31:04;23.27;;;9.40;;
21438;SDS011;10880;50.302;18.736;2023-04-06T01:34:02;20.20;;;8.50;;
21438;SDS011;10880;50.302;18.736;2023-04-06T01:36:35;25.17;;;9.70;;
21438;SDS011;10880;50.302;18.736;2023-04-06T01:39:42;19.40;;;8.60;;
21438;SDS011;10880;50.302;18.736;2023-04-06T01:42:26;24.63;;;9.60;;
21438;SDS011;10880;50.302;18.736;2023-04-06T01:45:22;22.30;;;9.07;;
21438;SDS011;10880;50.302;18.736;2023-04-06T01:48:09;18.83;;;9.27;;
21438;SDS011;10880;50.302;18.736;2023-04-06T01:51:05;20.60;;;8.47;;
21438;SDS011;10880;50.302;18.736;2023-04-06T01:54:24;24.47;;;9.97;;
21438;SDS011;10880;50.302;18.736;2023-04-06T01:57:15;35.83;;;13.53;;
21438;SDS011;10880;50.302;18.736;2023-04-06T02:00:16;39.47;;;15.40;;
21438;SDS011;10880;50.302;18.736;2023-04-06T02:02:52;38.80;;;15.53;;
21438;SDS011;10880;50.302;18.736;2023-04-06T02:05:47;28.70;;;11.57;;
21438;SDS011;10880;50.302;18.736;2023-04-06T02:08:30;22.97;;;9.07;;
21438;SDS011;10880;50.302;18.736;2023-04-06T02:11:23;17.47;;;7.97;;
21438;SDS011;10880;50.302;18.736;2023-04-06T02:13:56;19.33;;;8.43;;
21438;SDS011;10880;50.302;18.736;2023-04-06T02:16:55;20.10;;;8.23;;
21438;SDS011;10880;50.302;18.736;2023-04-06T02:19:28;18.57;;;7.63;;
21438;SDS011;10880;50.302;18.736;2023-04-06T02:22:21;22.33;;;8.87;;
21438;SDS011;10880;50.302;18.736;2023-04-06T02:24:54;18.10;;;7.93;;
21438;SDS011;10880;50.302;18.736;2023-04-06T02:27:47;16.63;;;7.53;;
21438;SDS011;10880;50.302;18.736;2023-04-06T02:30:20;16.47;;;7.03;;
21438;SDS011;10880;50.302;18.736;2023-04-06T02:33:14;13.17;;;7.00;;
21438;SDS011;10880;50.302;18.736;2023-04-06T02:35:48;22.97;;;8.00;;
21438;SDS011;10880;50.302;18.736;2023-04-06T02:38:41;18.63;;;7.90;;
21438;SDS011;10880;50.302;18.736;2023-04-06T02:41:15;17.03;;;7.63;;
21438;SDS011;10880;50.302;18.736;2023-04-06T02:44:15;16.90;;;6.87;;
21438;SDS011;10880;50.302;18.736;2023-04-06T02:46:48;14.87;;;7.17;;
21438;SDS011;10880;50.302;18.736;2023-04-06T02:49:44;17.37;;;7.50;;
21438;SDS011;10880;50.302;18.736;2023-04-06T02:52:17;20.43;;;8.60;;
21438;SDS011;10880;50.302;18.736;2023-04-06T02:55:10;18.07;;;7.93;;
21438;SDS011;10880;50.302;18.736;2023-04-06T02:57:43;20.10;;;8.50;;
21438;SDS011;10880;50.302;18.736;2023-04-06T03:00:41;21.83;;;8.10;;
21438;SDS011;10880;50.302;18.736;2023-04-06T03:03:14;27.80;;;9.77;;
21438;SDS011;10880;50.302;18.736;2023-04-06T03:06:07;34.10;;;11.13;;
21438;SDS011;10880;50.302;18.736;2023-04-06T03:08:40;36.83;;;11.97;;
21438;SDS011;10880;50.302;18.736;2023-04-06T03:11:33;36.27;;;11.43;;
21438;SDS011;10880;50.302;18.736;2023-04-06T03:14:06;30.13;;;11.37;;
21438;SDS011;10880;50.302;18.736;2023-04-06T03:16:59;31.67;;;11.80;;
21438;SDS011;10880;50.302;18.736;2023-04-06T03:19:33;24.83;;;9.50;;
21438;SDS011;10880;50.302;18.736;2023-04-06T03:22:26;30.43;;;10.53;;
21438;SDS011;10880;50.302;18.736;2023-04-06T03:25:01;24.60;;;8.50;;
21438;SDS011;10880;50.302;18.736;2023-04-06T03:27:56;22.80;;;9.40;;
21438;SDS011;10880;50.302;18.736;2023-04-06T03:30:36;18.90;;;7.93;;
21438;SDS011;10880;50.302;18.736;2023-04-06T03:33:34;25.60;;;9.43;;
21438;SDS011;10880;50.302;18.736;2023-04-06T03:36:09;23.33;;;8.73;;
21438;SDS011;10880;50.302;18.736;2023-04-06T03:39:08;26.27;;;9.57;;
21438;SDS011;10880;50.302;18.736;2023-04-06T03:41:42;25.90;;;11.17;;
21438;SDS011;10880;50.302;18.736;2023-04-06T03:44:47;28.07;;;10.73;;
21438;SDS011;10880;50.302;18.736;2023-04-06T03:47:20;22.07;;;9.33;;
21438;SDS011;10880;50.302;18.736;2023-04-06T03:50:17;22.70;;;9.60;;
21438;SDS011;10880;50.302;18.736;2023-04-06T03:52:56;18.27;;;8.03;;
21438;SDS011;10880;50.302;18.736;2023-04-06T03:55:49;22.73;;;9.27;;
21438;SDS011;10880;50.302;18.736;2023-04-06T03:58:31;32.90;;;12.10;;
21438;SDS011;10880;50.302;18.736;2023-04-06T04:01:25;41.77;;;16.13;;
21438;SDS011;10880;50.302;18.736;2023-04-06T04:03:58;29.57;;;11.87;;
21438;SDS011;10880;50.302;18.736;2023-04-06T04:06:51;26.13;;;10.47;;
21438;SDS011;10880;50.302;18.736;2023-04-06T04:09:24;24.87;;;9.80;;
21438;SDS011;10880;50.302;18.736;2023-04-06T04:12:17;19.93;;;8.83;;
21438;SDS011;10880;50.302;18.736;2023-04-06T04:14:50;23.30;;;8.70;;
21438;SDS011;10880;50.302;18.736;2023-04-06T04:17:43;22.97;;;10.00;;
21438;SDS011;10880;50.302;18.736;2023-04-06T04:20:19;26.00;;;10.50;;
21438;SDS011;10880;50.302;18.736;2023-04-06T04:23:13;29.07;;;11.33;;
21438;SDS011;10880;50.302;18.736;2023-04-06T04:25:46;24.43;;;10.13;;
21438;SDS011;10880;50.302;18.736;2023-04-06T04:28:39;25.40;;;9.23;;
21438;SDS011;10880;50.302;18.736;2023-04-06T04:31:12;39.43;;;12.67;;
21438;SDS011;10880;50.302;18.736;2023-04-06T04:34:12;54.07;;;15.90;;
21438;SDS011;10880;50.302;18.736;2023-04-06T04:36:49;49.53;;;17.53;;
21438;SDS011;10880;50.302;18.736;2023-04-06T04:39:57;49.47;;;18.03;;
21438;SDS011;10880;50.302;18.736;2023-04-06T04:42:37;48.80;;;15.07;;
21438;SDS011;10880;50.302;18.736;2023-04-06T04:45:41;32.50;;;11.07;;
21438;SDS011;10880;50.302;18.736;2023-04-06T04:48:26;32.17;;;11.27;;
21438;SDS011;10880;50.302;18.736;2023-04-06T04:51:19;37.97;;;13.20;;
21438;SDS011;10880;50.302;18.736;2023-04-06T04:54:24;29.67;;;10.80;;
21438;SDS011;10880;50.302;18.736;2023-04-06T04:57:17;23.20;;;9.63;;
21438;SDS011;10880;50.302;18.736;2023-04-06T04:59:50;42.20;;;15.23;;
21438;SDS011;10880;50.302;18.736;2023-04-06T05:02:44;29.70;;;11.17;;
21438;SDS011;10880;50.302;18.736;2023-04-06T05:05:29;30.70;;;11.63;;
21438;SDS011;10880;50.302;18.736;2023-04-06T05:08:22;26.30;;;10.40;;
21438;SDS011;10880;50.302;18.736;2023-04-06T05:10:55;22.87;;;9.40;;
21438;SDS011;10880;50.302;18.736;2023-04-06T05:13:52;21.70;;;8.53;;
21438;SDS011;10880;50.302;18.736;2023-04-06T05:16:25;20.37;;;8.57;;
21438;SDS011;10880;50.302;18.736;2023-04-06T05:19:22;18.33;;;8.53;;
21438;SDS011;10880;50.302;18.736;2023-04-06T05:21:55;20.97;;;9.30;;
21438;SDS011;10880;50.302;18.736;2023-04-06T05:24:50;30.17;;;12.17;;
21438;SDS011;10880;50.302;18.736;2023-04-06T05:27:23;20.80;;;9.57;;
21438;SDS011;10880;50.302;18.736;2023-04-06T05:30:21;21.47;;;9.37;;
21438;SDS011;10880;50.302;18.736;2023-04-06T05:32:54;19.90;;;8.37;;
21438;SDS011;10880;50.302;18.736;2023-04-06T05:36:09;26.20;;;10.70;;
21438;SDS011;10880;50.302;18.736;2023-04-06T05:38:44;36.03;;;13.97;;
21438;SDS011;10880;50.302;18.736;2023-04-06T05:41:48;32.40;;;13.57;;
21438;SDS011;10880;50.302;18.736;2023-04-06T05:44:36;28.80;;;13.50;;
21438;SDS011;10880;50.302;18.736;2023-04-06T05:47:31;29.50;;;12.03;;
21438;SDS011;10880;50.302;18.736;2023-04-06T05:50:24;19.90;;;10.23;;
21438;SDS011;10880;50.302;18.736;2023-04-06T05:53:17;20.63;;;9.47;;
21438;SDS011;10880;50.302;18.736;2023-04-06T05:56:12;19.77;;;9.73;;
21438;SDS011;10880;50.302;18.736;2023-04-06T05:58:45;16.67;;;9.00;;
21438;SDS011;10880;50.302;18.736;2023-04-06T06:01:44;18.27;;;8.67;;
21438;SDS011;10880;50.302;18.736;2023-04-06T06:04:19;20.70;;;9.57;;
21438;SDS011;10880;50.302;18.736;2023-04-06T06:07:12;30.30;;;13.50;;
21438;SDS011;10880;50.302;18.736;2023-04-06T06:09:59;26.50;;;12.63;;
21438;SDS011;10880;50.302;18.736;2023-04-06T06:12:54;23.93;;;11.63;;
21438;SDS011;10880;50.302;18.736;2023-04-06T06:15:28;21.47;;;10.70;;
21438;SDS011;10880;50.302;18.736;2023-04-06T06:18:22;22.63;;;9.77;;
21438;SDS011;10880;50.302;18.736;2023-04-06T06:20:55;20.20;;;8.87;;
21438;SDS011;10880;50.302;18.736;2023-04-06T06:23:48;17.17;;;7.40;;
21438;SDS011;10880;50.302;18.736;2023-04-06T06:26:23;13.60;;;7.73;;
21438;SDS011;10880;50.302;18.736;2023-04-06T06:29:17;16.70;;;7.43;;
21438;SDS011;10880;50.302;18.736;2023-04-06T06:31:50;16.77;;;7.73;;
21438;SDS011;10880;50.302;18.736;2023-04-06T06:34:43;17.50;;;8.17;;
21438;SDS011;10880;50.302;18.736;2023-04-06T06:37:17;19.87;;;8.80;;
21438;SDS011;10880;50.302;18.736;2023-04-06T06:40:10;22.03;;;9.57;;
21438;SDS011;10880;50.302;18.736;2023-04-06T06:42:47;18.57;;;8.37;;
21438;SDS011;10880;50.302;18.736;2023-04-06T06:45:45;18.87;;;8.53;;
21438;SDS011;10880;50.302;18.736;2023-04-06T06:48:18;17.07;;;7.73;;
21438;SDS011;10880;50.302;18.736;2023-04-06T06:51:11;18.47;;;8.10;;
21438;SDS011;10880;50.302;18.736;2023-04-06T06:54:05;18.27;;;7.97;;
21438;SDS011;10880;50.302;18.736;2023-04-06T06:56:40;18.67;;;7.60;;
21438;SDS011;10880;50.302;18.736;2023-04-06T06:59:34;15.00;;;7.07;;
21438;SDS011;10880;50.302;18.736;2023-04-06T07:02:07;13.97;;;6.27;;
21438;SDS011;10880;50.302;18.736;2023-04-06T07:05:00;8.40;;;5.30;;
21438;SDS011;10880;50.302;18.736;2023-04-06T07:07:33;9.10;;;4.67;;
21438;SDS011;10880;50.302;18.736;2023-04-06T07:10:27;11.57;;;5.60;;
21438;SDS011;10880;50.302;18.736;2023-04-06T07:13:00;8.07;;;4.43;;
21438;SDS011;10880;50.302;18.736;2023-04-06T07:15:53;7.70;;;4.33;;
21438;SDS011;10880;50.302;18.736;2023-04-06T07:18:27;8.30;;;4.57;;
21438;SDS011;10880;50.302;18.736;2023-04-06T07:21:21;8.70;;;4.67;;
21438;SDS011;10880;50.302;18.736;2023-04-06T07:23:55;13.57;;;6.23;;
21438;SDS011;10880;50.302;18.736;2023-04-06T07:26:48;12.40;;;5.93;;
21438;SDS011;10880;50.302;18.736;2023-04-06T07:29:22;7.90;;;5.10;;
21438;SDS011;10880;50.302;18.736;2023-04-06T07:32:15;6.70;;;4.00;;
21438;SDS011;10880;50.302;18.736;2023-04-06T07:34:50;5.97;;;3.70;;
21438;SDS011;10880;50.302;18.736;2023-04-06T07:37:43;6.63;;;4.37;;
21438;SDS011;10880;50.302;18.736;2023-04-06T07:40:16;6.90;;;4.00;;
21438;SDS011;10880;50.302;18.736;2023-04-06T07:43:10;5.47;;;3.57;;
21438;SDS011;10880;50.302;18.736;2023-04-06T07:45:44;5.23;;;3.33;;
21438;SDS011;10880;50.302;18.736;2023-04-06T07:48:37;7.30;;;4.30;;
21438;SDS011;10880;50.302;18.736;2023-04-06T07:51:17;6.93;;;4.13;;
21438;SDS011;10880;50.302;18.736;2023-04-06T07:54:11;6.47;;;4.53;;
21438;SDS011;10880;50.302;18.736;2023-04-06T07:56:45;8.17;;;4.43;;
21438;SDS011;10880;50.302;18.736;2023-04-06T07:59:38;10.07;;;5.23;;
21438;SDS011;10880;50.302;18.736;2023-04-06T08:02:11;9.67;;;5.83;;
21438;SDS011;10880;50.302;18.736;2023-04-06T08:05:04;8.97;;;5.13;;
21438;SDS011;10880;50.302;18.736;2023-04-06T08:07:38;8.70;;;5.03;;
21438;SDS011;10880;50.302;18.736;2023-04-06T08:10:31;10.30;;;5.30;;
21438;SDS011;10880;50.302;18.736;2023-04-06T08:13:06;7.83;;;4.43;;
21438;SDS011;10880;50.302;18.736;2023-04-06T08:15:59;9.27;;;4.93;;
21438;SDS011;10880;50.302;18.736;2023-04-06T08:18:33;10.27;;;5.90;;
21438;SDS011;10880;50.302;18.736;2023-04-06T08:21:26;7.33;;;4.70;;
21438;SDS011;10880;50.302;18.736;2023-04-06T08:24:02;7.53;;;4.80;;
21438;SDS011;10880;50.302;18.736;2023-04-06T08:26:56;6.87;;;5.03;;
21438;SDS011;10880;50.302;18.736;2023-04-06T08:29:32;6.67;;;4.53;;
21438;SDS011;10880;50.302;18.736;2023-04-06T08:32:27;5.93;;;4.23;;
21438;SDS011;10880;50.302;18.736;2023-04-06T08:35:00;7.67;;;4.20;;
21438;SDS011;10880;50.302;18.736;2023-04-06T08:37:53;7.23;;;4.77;;
21438;SDS011;10880;50.302;18.736;2023-04-06T08:40:26;7.50;;;4.30;;
21438;SDS011;10880;50.302;18.736;2023-04-06T08:43:23;6.63;;;4.13;;
21438;SDS011;10880;50.302;18.736;2023-04-06T08:45:59;5.10;;;3.80;;
21438;SDS011;10880;50.302;18.736;2023-04-06T08:48:52;5.90;;;4.00;;
21438;SDS011;10880;50.302;18.736;2023-04-06T08:51:26;7.03;;;5.10;;
21438;SDS011;10880;50.302;18.736;2023-04-06T08:54:20;6.70;;;4.30;;
21438;SDS011;10880;50.302;18.736;2023-04-06T08:56:53;6.27;;;3.53;;
21438;SDS011;10880;50.302;18.736;2023-04-06T08:59:46;7.70;;;4.30;;
21438;SDS011;10880;50.302;18.736;2023-04-06T09:02:20;5.10;;;4.00;;
21438;SDS011;10880;50.302;18.736;2023-04-06T09:05:13;5.63;;;3.67;;
21438;SDS011;10880;50.302;18.736;2023-04-06T09:07:47;3.93;;;3.10;;
21438;SDS011;10880;50.302;18.736;2023-04-06T09:10:41;5.00;;;3.60;;
21438;SDS011;10880;50.302;18.736;2023-04-06T09:13:16;4.33;;;3.27;;
21438;SDS011;10880;50.302;18.736;2023-04-06T09:16:09;4.43;;;3.50;;
21438;SDS011;10880;50.302;18.736;2023-04-06T09:18:42;3.17;;;2.87;;
21438;SDS011;10880;50.302;18.736;2023-04-06T09:21:35;3.37;;;2.83;;
21438;SDS011;10880;50.302;18.736;2023-04-06T09:24:12;3.20;;;2.73;;
21438;SDS011;10880;50.302;18.736;2023-04-06T09:27:10;4.93;;;3.53;;
21438;SDS011;10880;50.302;18.736;2023-04-06T09:29:46;4.63;;;3.30;;
21438;SDS011;10880;50.302;18.736;2023-04-06T09:32:50;3.50;;;3.13;;
21438;SDS011;10880;50.302;18.736;2023-04-06T09:35:25;3.93;;;3.20;;
21438;SDS011;10880;50.302;18.736;2023-04-06T09:38:22;5.80;;;3.63;;
21438;SDS011;10880;50.302;18.736;2023-04-06T09:40:55;6.07;;;3.50;;
21438;SDS011;10880;50.302;18.736;2023-04-06T09:43:52;3.73;;;3.13;;
21438;SDS011;10880;50.302;18.736;2023-04-06T09:46:35;3.67;;;3.23;;
21438;SDS011;10880;50.302;18.736;2023-04-06T09:49:30;5.60;;;3.43;;
21438;SDS011;10880;50.302;18.736;2023-04-06T09:52:06;5.30;;;3.20;;
21438;SDS011;10880;50.302;18.736;2023-04-06T09:55:02;4.10;;;3.37;;
21438;SDS011;10880;50.302;18.736;2023-04-06T10:00:23;3.80;;;2.80;;
21438;SDS011;10880;50.302;18.736;2023-04-06T10:03:25;3.20;;;2.80;;
21438;SDS011;10880;50.302;18.736;2023-04-06T10:06:34;8.20;;;4.13;;
21438;SDS011;10880;50.302;18.736;2023-04-06T10:09:15;4.80;;;3.67;;
21438;SDS011;10880;50.302;18.736;2023-04-06T10:12:02;5.23;;;3.80;;
21438;SDS011;10880;50.302;18.736;2023-04-06T10:14:47;4.37;;;3.30;;
21438;SDS011;10880;50.302;18.736;2023-04-06T10:17:34;3.27;;;2.90;;
21438;SDS011;10880;50.302;18.736;2023-04-06T10:20:18;4.00;;;2.50;;
21438;SDS011;10880;50.302;18.736;2023-04-06T10:23:12;4.17;;;3.07;;
21438;SDS011;10880;50.302;18.736;2023-04-06T10:26:02;4.20;;;3.30;;
21438;SDS011;10880;50.302;18.736;2023-04-06T10:28:49;4.93;;;3.83;;
21438;SDS011;10880;50.302;18.736;2023-04-06T10:31:30;5.77;;;3.97;;
21438;SDS011;10880;50.302;18.736;2023-04-06T10:34:16;3.97;;;3.43;;
21438;SDS011;10880;50.302;18.736;2023-04-06T10:36:56;4.53;;;3.20;;
21438;SDS011;10880;50.302;18.736;2023-04-06T10:39:46;4.87;;;3.53;;
21438;SDS011;10880;50.302;18.736;2023-04-06T10:42:37;4.97;;;3.40;;
21438;SDS011;10880;50.302;18.736;2023-04-06T10:45:26;5.53;;;3.90;;
21438;SDS011;10880;50.302;18.736;2023-04-06T10:48:17;5.63;;;3.60;;
21438;SDS011;10880;50.302;18.736;2023-04-06T10:51:09;3.93;;;3.30;;
21438;SDS011;10880;50.302;18.736;2023-04-06T10:53:58;4.43;;;3.23;;
21438;SDS011;10880;50.302;18.736;2023-04-06T10:56:56;4.33;;;3.20;;
21438;SDS011;10880;50.302;18.736;2023-04-06T10:59:29;5.17;;;3.40;;
21438;SDS011;10880;50.302;18.736;2023-04-06T11:02:22;4.43;;;3.50;;
21438;SDS011;10880;50.302;18.736;2023-04-06T11:04:55;3.23;;;2.93;;
21438;SDS011;10880;50.302;18.736;2023-04-06T11:07:49;3.00;;;2.70;;
21438;SDS011;10880;50.302;18.736;2023-04-06T11:10:22;4.00;;;3.50;;
21438;SDS011;10880;50.302;18.736;2023-04-06T11:13:17;4.23;;;3.27;;
21438;SDS011;10880;50.302;18.736;2023-04-06T11:15:50;3.63;;;3.20;;
21438;SDS011;10880;50.302;18.736;2023-04-06T11:19:02;3.37;;;2.83;;
21438;SDS011;10880;50.302;18.736;2023-04-06T11:24:35;3.70;;;3.10;;
21438;SDS011;10880;50.302;18.736;2023-04-06T11:27:10;4.10;;;3.17;;
21438;SDS011;10880;50.302;18.736;2023-04-06T11:30:04;4.13;;;3.00;;
21438;SDS011;10880;50.302;18.736;2023-04-06T11:32:39;2.90;;;2.60;;
21438;SDS011;10880;50.302;18.736;2023-04-06T11:35:34;2.63;;;2.43;;
21438;SDS011;10880;50.302;18.736;2023-04-06T11:38:08;3.13;;;2.60;;
21438;SDS011;10880;50.302;18.736;2023-04-06T11:41:01;4.13;;;2.70;;
21438;SDS011;10880;50.302;18.736;2023-04-06T11:43:35;2.77;;;2.57;;
21438;SDS011;10880;50.302;18.736;2023-04-06T11:46:28;2.87;;;2.37;;
21438;SDS011;10880;50.302;18.736;2023-04-06T11:49:02;2.40;;;2.17;;
21438;SDS011;10880;50.302;18.736;2023-04-06T11:51:55;2.30;;;2.10;;
21438;SDS011;10880;50.302;18.736;2023-04-06T11:54:51;3.43;;;2.80;;
21438;SDS011;10880;50.302;18.736;2023-04-06T11:57:28;3.40;;;2.77;;
21438;SDS011;10880;50.302;18.736;2023-04-06T12:00:21;2.70;;;2.50;;
21438;SDS011;10880;50.302;18.736;2023-04-06T12:02:54;3.10;;;2.50;;
21438;SDS011;10880;50.302;18.736;2023-04-06T12:05:47;3.30;;;2.83;;
21438;SDS011;10880;50.302;18.736;2023-04-06T12:08:23;3.20;;;2.70;;
21438;SDS011;10880;50.302;18.736;2023-04-06T12:11:16;2.93;;;2.40;;
21438;SDS011;10880;50.302;18.736;2023-04-06T12:13:51;3.00;;;2.70;;
21438;SDS011;10880;50.302;18.736;2023-04-06T12:16:47;4.13;;;3.00;;
21438;SDS011;10880;50.302;18.736;2023-04-06T12:19:21;4.60;;;3.00;;
21438;SDS011;10880;50.302;18.736;2023-04-06T12:22:15;4.80;;;3.13;;
21438;SDS011;10880;50.302;18.736;2023-04-06T12:24:48;3.90;;;3.30;;
21438;SDS011;10880;50.302;18.736;2023-04-06T12:27:41;3.40;;;3.10;;
21438;SDS011;10880;50.302;18.736;2023-04-06T12:30:14;3.60;;;2.97;;
21438;SDS011;10880;50.302;18.736;2023-04-06T12:33:12;3.47;;;2.90;;
21438;SDS011;10880;50.302;18.736;2023-04-06T12:35:45;4.60;;;3.40;;
21438;SDS011;10880;50.302;18.736;2023-04-06T12:38:40;4.03;;;3.40;;
21438;SDS011;10880;50.302;18.736;2023-04-06T12:41:14;3.90;;;3.07;;
21438;SDS011;10880;50.302;18.736;2023-04-06T12:44:07;3.03;;;2.73;;
21438;SDS011;10880;50.302;18.736;2023-04-06T12:46:40;4.27;;;3.10;;
21438;SDS011;10880;50.302;18.736;2023-04-06T12:49:34;5.10;;;3.30;;
21438;SDS011;10880;50.302;18.736;2023-04-06T12:52:08;5.40;;;3.67;;
21438;SDS011;10880;50.302;18.736;2023-04-06T12:55:04;6.17;;;4.30;;
21438;SDS011;10880;50.302;18.736;2023-04-06T12:57:39;6.17;;;4.57;;
21438;SDS011;10880;50.302;18.736;2023-04-06T13:00:32;4.77;;;3.73;;
21438;SDS011;10880;50.302;18.736;2023-04-06T13:03:08;4.73;;;3.70;;
21438;SDS011;10880;50.302;18.736;2023-04-06T13:06:01;6.23;;;4.47;;
21438;SDS011;10880;50.302;18.736;2023-04-06T13:08:34;6.23;;;4.57;;
21438;SDS011;10880;50.302;18.736;2023-04-06T13:11:27;6.37;;;4.13;;
21438;SDS011;10880;50.302;18.736;2023-04-06T13:14:02;5.53;;;4.17;;
21438;SDS011;10880;50.302;18.736;2023-04-06T13:16:55;6.33;;;4.53;;
21438;SDS011;10880;50.302;18.736;2023-04-06T13:19:28;5.33;;;3.77;;
21438;SDS011;10880;50.302;18.736;2023-04-06T13:22:22;5.63;;;4.20;;
21438;SDS011;10880;50.302;18.736;2023-04-06T13:24:55;4.10;;;3.50;;
21438;SDS011;10880;50.302;18.736;2023-04-06T13:27:48;7.73;;;4.90;;
21438;SDS011;10880;50.302;18.736;2023-04-06T13:30:22;22.23;;;7.93;;
21438;SDS011;10880;50.302;18.736;2023-04-06T13:33:15;23.50;;;8.27;;
21438;SDS011;10880;50.302;18.736;2023-04-06T13:35:48;15.20;;;6.47;;
21438;SDS011;10880;50.302;18.736;2023-04-06T13:38:41;7.70;;;5.00;;
21438;SDS011;10880;50.302;18.736;2023-04-06T13:41:19;6.13;;;4.23;;
21438;SDS011;10880;50.302;18.736;2023-04-06T13:44:13;5.33;;;3.57;;
21438;SDS011;10880;50.302;18.736;2023-04-06T13:46:46;5.83;;;3.73;;
21438;SDS011;10880;50.302;18.736;2023-04-06T13:49:39;6.27;;;4.37;;
21438;SDS011;10880;50.302;18.736;2023-04-06T13:52:13;6.47;;;3.97;;
21438;SDS011;10880;50.302;18.736;2023-04-06T13:55:06;4.50;;;3.23;;
21438;SDS011;10880;50.302;18.736;2023-04-06T13:57:40;4.77;;;3.50;;
21438;SDS011;10880;50.302;18.736;2023-04-06T14:00:33;4.30;;;3.30;;
21438;SDS011;10880;50.302;18.736;2023-04-06T14:03:07;5.33;;;4.00;;
21438;SDS011;10880;50.302;18.736;2023-04-06T14:06:00;6.40;;;3.47;;
21438;SDS011;10880;50.302;18.736;2023-04-06T14:08:34;4.10;;;2.90;;
21438;SDS011;10880;50.302;18.736;2023-04-06T14:11:27;3.57;;;3.17;;
21438;SDS011;10880;50.302;18.736;2023-04-06T14:14:01;3.97;;;3.40;;
21438;SDS011;10880;50.302;18.736;2023-04-06T14:16:54;5.93;;;4.20;;
21438;SDS011;10880;50.302;18.736;2023-04-06T14:19:28;7.03;;;4.50;;
21438;SDS011;10880;50.302;18.736;2023-04-06T14:22:21;6.20;;;4.40;;
21438;SDS011;10880;50.302;18.736;2023-04-06T14:24:55;5.20;;;3.77;;
21438;SDS011;10880;50.302;18.736;2023-04-06T14:27:51;6.57;;;3.80;;
21438;SDS011;10880;50.302;18.736;2023-04-06T14:30:24;5.83;;;3.77;;
21438;SDS011;10880;50.302;18.736;2023-04-06T14:33:17;3.33;;;2.93;;
21438;SDS011;10880;50.302;18.736;2023-04-06T14:35:50;5.90;;;3.83;;
21438;SDS011;10880;50.302;18.736;2023-04-06T14:38:44;5.57;;;3.40;;
21438;SDS011;10880;50.302;18.736;2023-04-06T14:41:19;4.93;;;3.13;;
21438;SDS011;10880;50.302;18.736;2023-04-06T14:44:16;6.77;;;3.93;;
21438;SDS011;10880;50.302;18.736;2023-04-06T14:46:49;6.40;;;4.40;;
21438;SDS011;10880;50.302;18.736;2023-04-06T14:49:42;7.13;;;4.23;;
21438;SDS011;10880;50.302;18.736;2023-04-06T14:52:15;11.13;;;5.47;;
21438;SDS011;10880;50.302;18.736;2023-04-06T14:55:08;9.67;;;5.20;;
21438;SDS011;10880;50.302;18.736;2023-04-06T14:57:41;14.20;;;5.67;;
21438;SDS011;10880;50.302;18.736;2023-04-06T15:00:34;9.90;;;5.07;;
21438;SDS011;10880;50.302;18.736;2023-04-06T15:03:08;9.63;;;4.50;;
21438;SDS011;10880;50.302;18.736;2023-04-06T15:06:05;8.27;;;4.50;;
21438;SDS011;10880;50.302;18.736;2023-04-06T15:08:54;8.13;;;4.10;;
21438;SDS011;10880;50.302;18.736;2023-04-06T15:11:48;12.10;;;5.30;;
21438;SDS011;10880;50.302;18.736;2023-04-06T15:14:24;11.37;;;5.23;;
21438;SDS011;10880;50.302;18.736;2023-04-06T15:17:17;9.80;;;4.80;;
21438;SDS011;10880;50.302;18.736;2023-04-06T15:19:50;9.30;;;4.53;;
21438;SDS011;10880;50.302;18.736;2023-04-06T15:22:43;5.50;;;4.00;;
21438;SDS011;10880;50.302;18.736;2023-04-06T15:25:19;7.40;;;4.63;;
21438;SDS011;10880;50.302;18.736;2023-04-06T15:28:13;6.10;;;4.03;;
21438;SDS011;10880;50.302;18.736;2023-04-06T15:30:50;5.50;;;3.63;;
21438;SDS011;10880;50.302;18.736;2023-04-06T15:33:43;5.53;;;3.60;;
21438;SDS011;10880;50.302;18.736;2023-04-06T15:36:24;4.93;;;3.40;;
21438;SDS011;10880;50.302;18.736;2023-04-06T15:39:18;4.87;;;3.40;;
21438;SDS011;10880;50.302;18.736;2023-04-06T15:41:52;5.13;;;3.50;;
21438;SDS011;10880;50.302;18.736;2023-04-06T15:44:45;6.50;;;4.30;;
21438;SDS011;10880;50.302;18.736;2023-04-06T15:47:18;8.33;;;4.80;;
21438;SDS011;10880;50.302;18.736;2023-04-06T15:50:11;5.63;;;3.97;;
21438;SDS011;10880;50.302;18.736;2023-04-06T15:52:47;6.80;;;3.90;;
21438;SDS011;10880;50.302;18.736;2023-04-06T15:55:40;5.50;;;3.33;;
21438;SDS011;10880;50.302;18.736;2023-04-06T15:58:13;4.90;;;3.20;;
21438;SDS011;10880;50.302;18.736;2023-04-06T16:01:14;2.87;;;2.67;;
21438;SDS011;10880;50.302;18.736;2023-04-06T16:03:48;3.37;;;2.40;;
21438;SDS011;10880;50.302;18.736;2023-04-06T16:06:41;6.97;;;3.80;;
21438;SDS011;10880;50.302;18.736;2023-04-06T16:09:14;9.10;;;4.03;;
21438;SDS011;10880;50.302;18.736;2023-04-06T16:12:08;5.40;;;3.20;;
21438;SDS011;10880;50.302;18.736;2023-04-06T16:14:42;4.83;;;2.93;;
21438;SDS011;10880;50.302;18.736;2023-04-06T16:17:35;3.00;;;2.70;;